createdAt,value
2023-05-08T00:00:23.102Z,14.73
2023-05-08T00:02:54.894Z,15.60
2023-05-08T00:05:23.589Z,15.85
2023-05-08T00:07:52.316Z,12.55
2023-05-08T00:10:21.026Z,14.05
2023-05-08T00:12:50.396Z,13.18
2023-05-08T00:15:18.461Z,13.10
2023-05-08T00:17:48.142Z,16.30
2023-05-08T00:20:16.476Z,19.98
2023-05-08T00:22:44.509Z,15.75
2023-05-08T00:25:14.040Z,17.17
2023-05-08T00:27:42.367Z,16.48
2023-05-08T00:30:11.572Z,15.27
2023-05-08T00:32:39.927Z,15.85
2023-05-08T00:35:10.073Z,13.85
2023-05-08T00:37:40.720Z,13.82
2023-05-08T00:40:10.343Z,19.60
2023-05-08T00:42:38.652Z,14.73
2023-05-08T00:45:07.709Z,15.63
2023-05-08T00:47:36.492Z,18.38
2023-05-08T00:50:06.053Z,16.63
2023-05-08T00:52:35.728Z,14.35
2023-05-08T00:55:05.877Z,16.27
2023-05-08T00:57:35.829Z,15.43
2023-05-08T01:00:05.645Z,13.07
2023-05-08T01:02:34.917Z,16.60
2023-05-08T01:05:04.512Z,23.00
2023-05-08T01:07:33.415Z,16.23
2023-05-08T01:10:03.549Z,13.25
2023-05-08T01:12:44.796Z,11.57
2023-05-08T01:15:17.375Z,14.50
2023-05-08T01:17:56.214Z,13.63
2023-05-08T01:20:35.817Z,15.98
2023-05-08T01:23:32.754Z,12.82
2023-05-08T01:26:31.603Z,14.10
2023-05-08T01:29:25.561Z,13.82
2023-05-08T01:32:15.488Z,14.43
2023-05-08T01:34:51.161Z,14.55
2023-05-08T01:37:27.156Z,18.00
2023-05-08T01:40:01.820Z,14.15
2023-05-08T01:42:40.499Z,15.18
2023-05-08T01:45:15.199Z,15.05
2023-05-08T01:47:48.528Z,14.05
2023-05-08T01:50:25.307Z,16.27
2023-05-08T01:53:01.784Z,15.57
2023-05-08T01:55:35.665Z,12.48
2023-05-08T01:58:07.993Z,11.15
2023-05-08T02:00:37.149Z,10.73
2023-05-08T02:03:09.323Z,11.43
2023-05-08T02:05:39.566Z,11.15
2023-05-08T02:08:09.670Z,9.88
2023-05-08T02:10:39.347Z,11.48
2023-05-08T02:13:10.252Z,12.80
2023-05-08T02:15:40.045Z,12.75
2023-05-08T02:18:11.355Z,13.90
2023-05-08T02:20:41.523Z,13.40
2023-05-08T02:23:10.478Z,10.85
2023-05-08T02:25:40.427Z,12.77
2023-05-08T02:28:09.396Z,13.13
2023-05-08T02:30:37.768Z,18.73
2023-05-08T02:33:09.362Z,13.15
2023-05-08T02:35:40.394Z,16.03
2023-05-08T02:38:11.700Z,11.68
2023-05-08T02:40:43.241Z,11.68
2023-05-08T02:43:11.711Z,10.20
2023-05-08T02:45:47.319Z,12.80
2023-05-08T02:48:23.800Z,12.57
2023-05-08T02:51:00.637Z,13.73
2023-05-08T02:53:35.510Z,12.50
2023-05-08T02:56:11.125Z,13.15
2023-05-08T02:58:45.370Z,12.40
2023-05-08T03:01:20.713Z,12.27
2023-05-08T03:04:00.648Z,12.82
2023-05-08T03:06:36.623Z,13.85
2023-05-08T03:09:06.528Z,13.85
2023-05-08T03:11:41.692Z,13.68
2023-05-08T03:14:15.064Z,14.70
2023-05-08T03:16:45.993Z,12.30
2023-05-08T03:19:22.354Z,15.10
2023-05-08T03:21:54.345Z,17.73
2023-05-08T03:24:24.833Z,15.00
2023-05-08T03:26:53.413Z,14.35
2023-05-08T03:29:23.171Z,17.33
2023-05-08T03:31:53.180Z,15.95
2023-05-08T03:34:22.914Z,14.98
2023-05-08T03:36:53.174Z,16.25
2023-05-08T03:39:21.337Z,12.40
2023-05-08T03:41:49.788Z,14.38
2023-05-08T03:44:19.074Z,14.90
2023-05-08T03:46:48.982Z,13.52
2023-05-08T03:49:18.754Z,15.30
2023-05-08T03:51:47.156Z,12.07
2023-05-08T03:54:16.586Z,14.38
2023-05-08T03:56:46.093Z,16.65
2023-05-08T03:59:22.804Z,15.65
2023-05-08T04:01:56.157Z,14.95
2023-05-08T04:04:31.588Z,17.55
2023-05-08T04:07:08.491Z,18.17
2023-05-08T04:09:44.124Z,17.38
2023-05-08T04:12:19.072Z,17.17
2023-05-08T04:14:52.339Z,21.30
2023-05-08T04:17:36.105Z,21.70
2023-05-08T04:20:08.185Z,23.42
2023-05-08T04:22:38.480Z,20.25
2023-05-08T04:25:10.289Z,23.30
2023-05-08T04:27:39.928Z,26.38
2023-05-08T04:30:10.434Z,22.13
2023-05-08T04:32:40.936Z,23.65
2023-05-08T04:35:10.884Z,25.15
2023-05-08T04:37:39.152Z,26.73
2023-05-08T04:40:10.776Z,24.83
2023-05-08T04:42:42.781Z,30.30
2023-05-08T04:45:12.074Z,29.20
2023-05-08T04:47:40.538Z,29.00
2023-05-08T04:50:09.441Z,23.85
2023-05-08T04:52:37.514Z,28.75
2023-05-08T04:55:06.322Z,26.23
2023-05-08T04:57:36.456Z,26.15
2023-05-08T05:00:05.108Z,30.63
2023-05-08T05:02:33.335Z,29.70
2023-05-08T05:05:02.132Z,23.75
2023-05-08T05:07:30.177Z,24.02
2023-05-08T05:09:58.602Z,26.40
2023-05-08T05:12:26.649Z,23.10
2023-05-08T05:14:56.242Z,26.33
2023-05-08T05:17:27.759Z,23.05
2023-05-08T05:19:56.020Z,28.33
2023-05-08T05:22:24.131Z,24.02
2023-05-08T05:24:53.039Z,26.20
2023-05-08T05:27:44.671Z,25.63
2023-05-08T05:30:36.112Z,25.60
2023-05-08T05:33:23.427Z,23.40
2023-05-08T05:36:09.221Z,26.08
2023-05-08T05:38:47.404Z,22.20
2023-05-08T05:41:22.522Z,22.90
2023-05-08T05:43:51.117Z,26.30
2023-05-08T05:46:32.630Z,22.10
2023-05-08T05:49:04.133Z,24.08
2023-05-08T05:51:34.727Z,22.13
2023-05-08T05:54:08.975Z,22.70
2023-05-08T05:56:39.872Z,23.02
2023-05-08T05:59:19.056Z,21.17
2023-05-08T06:01:51.685Z,22.48
2023-05-08T06:04:23.132Z,22.67
2023-05-08T06:06:51.176Z,19.52
2023-05-08T06:09:19.700Z,23.88
2023-05-08T06:11:53.096Z,20.23
2023-05-08T06:14:23.250Z,21.50
2023-05-08T06:16:52.821Z,24.08
2023-05-08T06:19:24.679Z,20.88
2023-05-08T06:21:53.020Z,21.05
2023-05-08T06:24:21.255Z,23.65
2023-05-08T06:26:52.043Z,21.42
2023-05-08T06:29:22.675Z,21.92
2023-05-08T06:32:04.556Z,21.33
2023-05-08T06:34:37.402Z,22.60
2023-05-08T06:37:08.599Z,19.58
2023-05-08T06:39:42.907Z,19.95
2023-05-08T06:42:22.556Z,19.35
2023-05-08T06:44:53.685Z,21.73
2023-05-08T06:47:23.279Z,18.77
2023-05-08T06:49:54.273Z,22.00
2023-05-08T06:52:25.668Z,20.58
2023-05-08T06:54:58.887Z,18.83
2023-05-08T06:57:29.256Z,16.38
2023-05-08T06:59:57.445Z,21.17
2023-05-08T07:02:31.158Z,19.50
2023-05-08T07:04:59.588Z,22.65
2023-05-08T07:07:28.175Z,22.55
2023-05-08T07:09:56.553Z,22.90
2023-05-08T07:12:43.872Z,19.85
2023-05-08T07:15:42.581Z,18.45
2023-05-08T07:18:12.959Z,22.52
2023-05-08T07:20:45.513Z,22.30
2023-05-08T07:23:13.831Z,21.33
2023-05-08T07:25:41.843Z,18.67
2023-05-08T07:28:12.840Z,19.02
2023-05-08T07:30:47.328Z,18.45
2023-05-08T07:33:26.545Z,20.50
2023-05-08T07:35:57.262Z,21.83
2023-05-08T07:38:27.206Z,19.77
2023-05-08T07:40:57.237Z,17.98
2023-05-08T07:43:28.497Z,19.92
2023-05-08T07:45:59.165Z,19.95
2023-05-08T07:48:30.919Z,19.42
2023-05-08T07:50:58.888Z,13.85
2023-05-08T07:53:27.480Z,17.45
2023-05-08T07:55:55.497Z,21.45
2023-05-08T07:58:24.023Z,19.88
2023-05-08T08:00:52.195Z,22.88
2023-05-08T08:03:20.219Z,18.42
2023-05-08T08:05:49.906Z,21.23
2023-05-08T08:08:17.931Z,17.95
2023-05-08T08:10:45.945Z,19.27
2023-05-08T08:13:14.354Z,20.83
2023-05-08T08:15:47.879Z,23.60
2023-05-08T08:18:16.096Z,20.45
2023-05-08T08:20:44.302Z,19.35
2023-05-08T08:23:13.820Z,22.50
2023-05-08T08:25:41.841Z,20.50
2023-05-08T08:28:09.898Z,19.42
2023-05-08T08:30:38.125Z,16.65
2023-05-08T08:33:06.783Z,17.27
2023-05-08T08:35:35.104Z,17.58
2023-05-08T08:38:03.120Z,20.15
2023-05-08T08:40:32.609Z,20.88
2023-05-08T08:43:00.709Z,19.17
2023-05-08T08:45:28.707Z,21.38
2023-05-08T08:48:01.923Z,19.77
2023-05-08T08:50:32.866Z,18.55
2023-05-08T08:53:08.753Z,20.20
2023-05-08T08:55:41.609Z,18.65
2023-05-08T08:58:18.116Z,18.98
2023-05-08T09:00:47.587Z,19.15
2023-05-08T09:03:16.621Z,17.95
2023-05-08T09:05:45.172Z,18.90
2023-05-08T09:08:14.116Z,19.77
2023-05-08T09:10:43.521Z,18.15
2023-05-08T09:13:11.476Z,19.40
2023-05-08T09:15:39.477Z,17.05
2023-05-08T09:18:07.489Z,16.33
2023-05-08T09:20:36.368Z,18.20
2023-05-08T09:23:04.693Z,19.88
2023-05-08T09:25:51.814Z,19.80
2023-05-08T09:28:20.754Z,16.75
2023-05-08T09:30:53.719Z,15.38
2023-05-08T09:33:23.201Z,17.58
2023-05-08T09:35:51.598Z,16.85
2023-05-08T09:38:35.103Z,16.02
2023-05-08T09:41:12.285Z,15.93
2023-05-08T09:43:40.494Z,21.10
2023-05-08T09:46:25.189Z,17.55
2023-05-08T09:48:54.824Z,16.17
2023-05-08T09:51:23.525Z,17.83
2023-05-08T09:53:53.143Z,15.70
2023-05-08T09:56:36.493Z,15.00
2023-05-08T09:59:06.475Z,17.05
2023-05-08T10:01:36.283Z,17.15
2023-05-08T10:04:06.076Z,20.40
2023-05-08T10:06:37.872Z,14.52
2023-05-08T10:09:13.959Z,14.63
2023-05-08T10:11:52.012Z,13.98
2023-05-08T10:14:20.935Z,13.80
2023-05-08T10:16:51.726Z,15.75
2023-05-08T10:19:21.172Z,15.85
2023-05-08T10:21:51.293Z,16.05
2023-05-08T10:24:20.758Z,16.48
2023-05-08T10:27:07.388Z,17.95
2023-05-08T10:29:43.630Z,16.70
2023-05-08T10:32:14.223Z,20.58
2023-05-08T10:34:42.968Z,18.42
2023-05-08T10:37:11.503Z,18.27
2023-05-08T10:39:43.555Z,18.83
2023-05-08T10:42:15.232Z,21.08
2023-05-08T10:44:43.259Z,23.88
2023-05-08T10:47:17.461Z,16.00
2023-05-08T10:49:58.617Z,19.30
2023-05-08T10:52:35.209Z,17.17
2023-05-08T10:55:17.702Z,17.15
2023-05-08T10:58:11.179Z,18.00
2023-05-08T11:01:13.500Z,18.73
2023-05-08T11:03:44.303Z,18.70
2023-05-08T11:06:13.159Z,16.58
2023-05-08T11:08:49.744Z,20.23
2023-05-08T11:11:31.492Z,20.58
2023-05-08T11:14:12.536Z,20.23
2023-05-08T11:17:09.243Z,19.27
2023-05-08T11:19:38.907Z,20.00
2023-05-08T11:22:34.215Z,20.30
2023-05-08T11:25:05.283Z,25.70
2023-05-08T11:28:05.632Z,19.00
2023-05-08T11:30:39.844Z,20.48
2023-05-08T11:33:18.360Z,22.58
2023-05-08T11:35:49.766Z,21.77
2023-05-08T11:38:19.814Z,20.33
2023-05-08T11:40:50.293Z,25.80
2023-05-08T11:43:59.681Z,21.23
2023-05-08T11:46:42.846Z,22.48
2023-05-08T11:49:16.546Z,20.90
2023-05-08T11:51:46.580Z,27.10
2023-05-08T11:54:16.575Z,21.60
2023-05-08T11:56:47.709Z,23.33
2023-05-08T11:59:16.953Z,22.30
2023-05-08T12:02:06.976Z,22.83
2023-05-08T12:04:45.433Z,22.20
2023-05-08T12:07:13.684Z,22.85
2023-05-08T12:09:41.786Z,23.98
2023-05-08T12:12:15.369Z,23.38
2023-05-08T12:14:43.467Z,23.15
2023-05-08T12:17:23.613Z,22.58
2023-05-08T12:19:57.020Z,25.30
2023-05-08T12:22:25.314Z,22.42
2023-05-08T12:27:45.994Z,25.63
2023-05-08T12:30:16.491Z,24.23
2023-05-08T12:32:50.556Z,25.77
2023-05-08T12:35:24.465Z,26.83
2023-05-08T12:37:53.468Z,27.60
2023-05-08T12:40:27.935Z,25.38
2023-05-08T12:42:56.174Z,22.38
2023-05-08T12:45:28.632Z,20.05
2023-05-08T12:50:32.894Z,19.50
2023-05-08T12:53:04.858Z,29.65
2023-05-08T12:55:34.924Z,18.67
2023-05-08T12:58:05.583Z,19.65
2023-05-08T13:00:41.936Z,21.45
2023-05-08T13:03:27.290Z,19.00
2023-05-08T13:05:56.357Z,18.58
2023-05-08T13:08:31.235Z,15.18
2023-05-08T13:11:00.126Z,15.40
2023-05-08T13:13:34.043Z,16.30
2023-05-08T13:16:04.803Z,15.25
2023-05-08T13:18:36.180Z,13.48
2023-05-08T13:21:04.390Z,14.82
2023-05-08T13:23:32.307Z,13.70
2023-05-08T13:26:00.441Z,13.43
2023-05-08T13:28:28.456Z,16.17
2023-05-08T13:30:59.737Z,17.02
2023-05-08T13:33:27.792Z,16.27
2023-05-08T13:35:57.095Z,16.48
2023-05-08T13:38:25.078Z,12.55
2023-05-08T13:40:53.044Z,14.10
2023-05-08T13:43:23.432Z,12.70
2023-05-08T13:45:51.678Z,14.38
2023-05-08T13:48:19.743Z,15.65
2023-05-08T13:51:09.441Z,12.57
2023-05-08T13:53:39.280Z,15.68
2023-05-08T13:56:07.535Z,16.77
2023-05-08T13:58:35.561Z,13.88
2023-05-08T14:01:17.668Z,14.02
2023-05-08T14:03:52.015Z,13.85
2023-05-08T14:06:20.486Z,20.48
2023-05-08T14:08:52.300Z,15.02
2023-05-08T14:11:23.703Z,13.20
2023-05-08T14:13:51.883Z,14.60
2023-05-08T14:16:19.891Z,13.38
2023-05-08T14:18:47.984Z,15.55
2023-05-08T14:21:15.951Z,13.95
2023-05-08T14:23:45.032Z,13.27
2023-05-08T14:26:14.509Z,15.02
2023-05-08T14:28:42.690Z,16.58
2023-05-08T14:31:10.827Z,16.15
2023-05-08T14:33:38.925Z,14.95
2023-05-08T14:36:07.574Z,15.13
2023-05-08T14:38:35.604Z,14.35
2023-05-08T14:41:04.956Z,15.88
2023-05-08T14:43:34.552Z,17.58
2023-05-08T14:46:02.664Z,12.70
2023-05-08T14:48:30.721Z,15.38
2023-05-08T14:50:58.682Z,12.32
2023-05-08T14:53:26.857Z,13.35
2023-05-08T14:55:55.131Z,11.85
2023-05-08T14:58:23.680Z,14.15
2023-05-08T15:00:53.248Z,12.57
2023-05-08T15:03:21.483Z,12.93
2023-05-08T15:05:49.668Z,11.70
2023-05-08T15:08:17.817Z,12.73
2023-05-08T15:10:46.020Z,11.15
2023-05-08T15:13:14.145Z,9.90
2023-05-08T15:15:42.249Z,11.73
2023-05-08T15:18:11.638Z,12.43
2023-05-08T15:20:39.677Z,9.40
2023-05-08T15:23:07.734Z,11.88
2023-05-08T15:25:36.101Z,13.25
2023-05-08T15:28:04.249Z,12.15
2023-05-08T15:30:32.312Z,11.48
2023-05-08T15:33:00.436Z,11.65
2023-05-08T15:35:30.197Z,10.65
2023-05-08T15:37:58.236Z,9.23
2023-05-08T15:40:26.191Z,11.25
2023-05-08T15:42:54.175Z,9.43
2023-05-08T15:45:22.342Z,7.80
2023-05-08T15:47:50.416Z,9.70
2023-05-08T15:50:18.437Z,8.63
2023-05-08T15:52:47.868Z,9.43
2023-05-08T15:55:17.549Z,9.60
2023-05-08T15:57:45.522Z,9.18
2023-05-08T16:00:14.882Z,7.93
2023-05-08T16:02:43.190Z,7.18
2023-05-08T16:05:11.905Z,7.43
2023-05-08T16:07:40.349Z,7.65
2023-05-08T16:10:11.204Z,7.72
2023-05-08T16:12:39.260Z,11.43
2023-05-08T16:15:07.884Z,7.85
2023-05-08T16:17:36.027Z,11.90
2023-05-08T16:20:04.406Z,9.95
2023-05-08T16:22:44.642Z,10.10
2023-05-08T16:25:19.367Z,9.40
2023-05-08T16:27:56.754Z,9.30
2023-05-08T16:30:27.300Z,7.57
2023-05-08T16:32:55.356Z,9.68
2023-05-08T16:35:42.411Z,7.18
2023-05-08T16:38:15.721Z,7.25
2023-05-08T16:40:55.267Z,7.85
2023-05-08T16:43:23.429Z,8.18
2023-05-08T16:45:58.688Z,8.18
2023-05-08T16:48:28.855Z,9.88
2023-05-08T16:50:59.293Z,10.82
2023-05-08T16:53:34.121Z,10.15
2023-05-08T16:56:14.692Z,7.47
2023-05-08T16:58:49.467Z,9.35
2023-05-08T17:01:21.961Z,8.73
2023-05-08T17:03:53.193Z,8.20
2023-05-08T17:06:27.247Z,10.38
2023-05-08T17:09:04.744Z,10.35
2023-05-08T17:11:34.235Z,10.40
2023-05-08T17:14:02.224Z,11.07
2023-05-08T17:16:30.293Z,7.82
2023-05-08T17:18:59.650Z,7.25
2023-05-08T17:21:27.742Z,8.57
2023-05-08T17:23:55.681Z,8.32
2023-05-08T17:26:24.342Z,6.97
2023-05-08T17:28:53.933Z,10.23
2023-05-08T17:31:21.947Z,9.35
2023-05-08T17:33:49.980Z,9.40
2023-05-08T17:36:18.000Z,10.57
2023-05-08T17:38:47.235Z,9.93
2023-05-08T17:41:15.982Z,9.93
2023-05-08T17:43:46.239Z,10.63
2023-05-08T17:46:18.411Z,9.77
2023-05-08T17:51:14.758Z,9.43
2023-05-08T17:53:58.352Z,9.15
2023-05-08T17:56:26.695Z,10.23
2023-05-08T17:58:55.681Z,8.90
2023-05-08T18:01:26.098Z,8.52
2023-05-08T18:03:54.719Z,12.48
2023-05-08T18:06:23.130Z,9.73
2023-05-08T18:08:51.235Z,8.13
2023-05-08T18:11:20.341Z,8.18
2023-05-08T18:13:48.551Z,8.65
2023-05-08T18:16:19.076Z,8.88
2023-05-08T18:18:49.421Z,9.23
2023-05-08T18:21:17.907Z,10.07
2023-05-08T18:23:46.062Z,10.95
2023-05-08T18:26:15.513Z,13.38
2023-05-08T18:28:43.662Z,11.20
2023-05-08T18:31:12.229Z,7.90
2023-05-08T18:33:40.545Z,9.95
2023-05-08T18:36:10.314Z,12.20
2023-05-08T18:38:38.439Z,10.57
2023-05-08T18:41:06.757Z,9.90
2023-05-08T18:43:35.152Z,12.55
2023-05-08T18:46:09.631Z,12.50
2023-05-08T18:48:37.907Z,10.65
2023-05-08T18:51:06.308Z,12.77
2023-05-08T18:53:38.456Z,11.70
2023-05-08T18:58:35.265Z,12.68
2023-05-08T19:01:03.447Z,12.65
2023-05-08T19:03:31.746Z,11.40
2023-05-08T19:06:00.164Z,15.18
2023-05-08T19:08:28.492Z,12.40
2023-05-08T19:10:58.159Z,14.48
2023-05-08T19:13:26.838Z,14.48
2023-05-08T19:15:55.052Z,17.58
2023-05-08T19:18:23.489Z,14.85
2023-05-08T19:20:51.734Z,17.30
2023-05-08T19:23:19.910Z,14.07
2023-05-08T19:25:48.151Z,12.50
2023-05-08T19:28:17.786Z,12.75
2023-05-08T19:30:46.077Z,15.25
2023-05-08T19:33:14.611Z,14.73
2023-05-08T19:35:42.861Z,15.70
2023-05-08T19:38:10.988Z,13.98
2023-05-08T19:40:54.941Z,15.90
2023-05-08T19:43:26.870Z,13.07
2023-05-08T19:45:56.387Z,14.73
2023-05-08T19:48:24.751Z,14.23
2023-05-08T19:50:54.859Z,13.65
2023-05-08T19:53:23.482Z,14.98
2023-05-08T19:55:52.000Z,22.40
2023-05-08T19:58:20.234Z,16.45
2023-05-08T20:00:51.540Z,13.88
2023-05-08T20:03:20.495Z,13.25
2023-05-08T20:05:48.894Z,13.75
2023-05-08T20:08:17.153Z,13.18
2023-05-08T20:10:46.063Z,13.65
2023-05-08T20:13:14.333Z,13.43
2023-05-08T20:15:42.620Z,14.77
2023-05-08T20:18:12.242Z,15.02
2023-05-08T20:20:40.418Z,12.82
2023-05-08T20:23:08.534Z,15.07
2023-05-08T20:25:36.745Z,14.10
2023-05-08T20:28:05.008Z,14.82
2023-05-08T20:30:33.176Z,14.95
2023-05-08T20:33:05.016Z,15.70
2023-05-08T20:35:35.495Z,16.52
2023-05-08T20:38:03.749Z,17.63
2023-05-08T20:40:32.033Z,13.63
2023-05-08T20:43:00.125Z,17.05
2023-05-08T20:45:28.385Z,17.30
2023-05-08T20:47:56.555Z,19.38
2023-05-08T20:50:24.687Z,16.30
2023-05-08T20:52:54.363Z,15.98
2023-05-08T20:55:22.823Z,16.20
2023-05-08T20:57:50.944Z,18.83
2023-05-08T21:00:19.763Z,13.77
2023-05-08T21:02:47.977Z,15.88
2023-05-08T21:05:16.427Z,18.60
2023-05-08T21:07:44.784Z,12.85
2023-05-08T21:10:16.506Z,13.30
2023-05-08T21:12:45.526Z,16.13
2023-05-08T21:15:14.070Z,13.93
2023-05-08T21:17:42.448Z,16.33
2023-05-08T21:20:11.747Z,13.32
2023-05-08T21:22:40.107Z,13.63
2023-05-08T21:25:09.140Z,15.68
2023-05-08T21:27:38.682Z,13.60
2023-05-08T21:30:08.170Z,17.77
2023-05-08T21:32:36.227Z,16.35
2023-05-08T21:35:04.638Z,14.43
2023-05-08T21:37:32.961Z,14.75
2023-05-08T21:40:00.984Z,15.60
2023-05-08T21:42:28.969Z,14.85
2023-05-08T21:44:58.707Z,16.85
2023-05-08T21:47:28.310Z,14.45
2023-05-08T21:49:57.281Z,18.77
2023-05-08T21:52:26.117Z,14.82
2023-05-08T21:54:54.435Z,16.88
2023-05-08T21:57:22.747Z,16.02
2023-05-08T21:59:51.137Z,20.85
2023-05-08T22:02:21.078Z,17.27
2023-05-08T22:04:49.272Z,16.65
2023-05-08T22:07:17.300Z,16.27
2023-05-08T22:09:45.410Z,15.88
2023-05-08T22:12:13.555Z,17.88
2023-05-08T22:14:41.585Z,16.65
2023-05-08T22:17:09.633Z,14.35
2023-05-08T22:19:39.116Z,14.10
2023-05-08T22:22:07.289Z,17.38
2023-05-08T22:24:35.513Z,14.68
2023-05-08T22:27:03.614Z,16.85
2023-05-08T22:29:31.573Z,18.00
2023-05-08T22:31:59.630Z,17.25
2023-05-08T22:34:27.598Z,21.05
2023-05-08T22:36:56.977Z,16.27
2023-05-08T22:39:24.924Z,18.15
2023-05-08T22:41:52.898Z,20.23
2023-05-08T22:44:21.010Z,20.83
2023-05-08T22:46:49.268Z,17.67
2023-05-08T22:49:17.468Z,19.15
2023-05-08T22:51:45.518Z,20.35
2023-05-08T22:54:14.919Z,20.27
2023-05-08T22:56:42.914Z,19.77
2023-05-08T22:59:10.957Z,20.63
2023-05-08T23:01:39.131Z,21.30
2023-05-08T23:04:07.247Z,21.58
2023-05-08T23:06:35.907Z,20.15
2023-05-08T23:09:04.706Z,21.38
2023-05-08T23:11:34.046Z,19.40
2023-05-08T23:14:01.951Z,19.73
2023-05-08T23:16:29.835Z,17.15
2023-05-08T23:18:57.785Z,18.60
2023-05-08T23:21:25.671Z,18.67
2023-05-08T23:23:54.266Z,17.10
2023-05-08T23:26:22.240Z,19.02
2023-05-08T23:28:51.565Z,20.15
2023-05-08T23:31:19.763Z,16.30
2023-05-08T23:33:47.713Z,18.90
2023-05-08T23:36:16.667Z,19.45
2023-05-08T23:38:44.612Z,19.15
2023-05-08T23:41:13.050Z,18.58
2023-05-08T23:43:40.914Z,17.98
2023-05-08T23:46:10.157Z,19.45
2023-05-08T23:48:38.159Z,21.67
2023-05-08T23:51:06.429Z,22.08
2023-05-08T23:53:34.383Z,24.88
2023-05-08T23:56:02.297Z,18.42
2023-05-08T23:58:30.152Z,22.55
